Aérodrome :
LOGIN :

S'inscrire | Disclaimer

   EN    FR    IT 

 










Légende :    VFR   VFR Marginal   IFR   IFR Intensif   IFR Très Intensif
Visi : 
Plafond : 
>= 8 km
>= 3000ft
5 à 8 km
1000 à 3000 ft
1500m à 5 km
500 à 1000 ft
800 à 1500m
200 à 500 ft
< 800m
< 200 ft
Symboles :   Orages  Brouillard  Fortes neiges  Fortes précipitations  Vent > 20 kt
SIGMETs :   Divers  Orages  Givrage  Turbulence  Onde Orograph.  Cendres Volcan.






- Altitude de l'aérodrome : 319 ft


EIME - Casement Air Base

DERNIER METAR :
  • 110000Z 22016KT 9999 FEW017 04/02 Q1003

METARs EXPIRÉS :
  • 102300Z 22016KT 9999 FEW016 04/02 Q1002
  • 102200Z 23018KT 9999 FEW017 05/03 Q1002

TAF TAF EIME
Valide du 11 à 00h jusqu'au 11 à 09h UTC


102300Z 1100/1109 23017KT 9999 FEW017 SCT025
TEMPO 1100/1109 22020G32KT
PROB40
TEMPO 1105/1108 7000 -SHRA BKN012



MET'MAP, la Météo Aéronautique d'un coup d'oeil ! - Copyright ORBIFLY Décembre 2007 - Disclaimer

ORBIFLY MET'MAP TEAM :

Programmation & Développement : Alexandra Zaïnal
Sur une idée originale de : Baudouin d'Aumeries
Assistance à la programmation : Marc-Olivier Méhu
Soutien technique & logistique : Manuel Goepfert

Contact : metmap@orbifly.com




SOURCES & CREDITS :

   NOAA